EZY7931 EHAM-LKPR
Flight info
| Callsign | EZY7931 |
|---|---|
| Flight time | 1h 8m |
| Altitude | 37000 |
| Route | ARNEM L620 HMM DCT NOMKA DCT SUVUT L620 PIKIB T620 LALUK DCT GOLOP |
| Aircraft | A320/M-SDE3FGHIRWY/LB1 |
Departure
| Time | 2026-05-01 12:57 |
|---|---|
| Airport | Amsterdam Airport Schiphol (EHAM) |
Arrival
| Time | 2026-05-01 14:06 |
|---|---|
| Airport | Václav Havel Airport Prague (LKPR) |
| Time | Latitude | Longitude | Altitude | Speed | Heading |
|---|---|---|---|---|---|
| 2026-05-01 12:30 | 52.31027 | 4.75459 | -2 ft | 0 kts | 149° |
| 2026-05-01 12:47 | 52.31031 | 4.75455 | -2 ft | 3 kts | 149° |
| 2026-05-01 12:47 | 52.31050 | 4.75435 | -1 ft | 4 kts | 133° |
| 2026-05-01 12:47 | 52.31062 | 4.75400 | -1 ft | 4 kts | 86° |
| 2026-05-01 12:47 | 52.31059 | 4.75378 | -2 ft | 1 kts | 57° |
| 2026-05-01 12:49 | 52.31076 | 4.75421 | -1 ft | 13 kts | 57° |
| 2026-05-01 12:49 | 52.31134 | 4.75494 | 1 ft | 9 kts | 11° |
| 2026-05-01 12:50 | 52.31176 | 4.75494 | 5 ft | 3 kts | 355° |
| 2026-05-01 12:50 | 52.31194 | 4.75492 | 4 ft | 5 kts | 355° |
| 2026-05-01 12:50 | 52.31261 | 4.75484 | 6 ft | 16 kts | 356° |
| 2026-05-01 12:50 | 52.31369 | 4.75474 | 7 ft | 14 kts | 357° |
| 2026-05-01 12:51 | 52.31433 | 4.75533 | 9 ft | 11 kts | 82° |
| 2026-05-01 12:51 | 52.31439 | 4.75711 | 11 ft | 18 kts | 88° |
| 2026-05-01 12:51 | 52.31454 | 4.76146 | 14 ft | 22 kts | 86° |
| 2026-05-01 12:52 | 52.31463 | 4.76409 | 14 ft | 24 kts | 87° |
| 2026-05-01 12:52 | 52.31480 | 4.76900 | 8 ft | 18 kts | 86° |
| 2026-05-01 12:52 | 52.31486 | 4.77078 | 7 ft | 0 kts | 87° |
| 2026-05-01 12:53 | 52.31486 | 4.77081 | 7 ft | 1 kts | 87° |
| 2026-05-01 12:53 | 52.31487 | 4.77099 | 7 ft | 2 kts | 87° |
| 2026-05-01 12:53 | 52.31488 | 4.77128 | 7 ft | 3 kts | 85° |
| 2026-05-01 12:54 | 52.31490 | 4.77155 | 7 ft | 2 kts | 82° |
| 2026-05-01 12:54 | 52.31552 | 4.77214 | 10 ft | 8 kts | 26° |
| 2026-05-01 12:54 | 52.31579 | 4.77329 | 10 ft | 14 kts | 85° |
| 2026-05-01 12:55 | 52.31589 | 4.77646 | 15 ft | 11 kts | 86° |
| 2026-05-01 12:55 | 52.31592 | 4.77712 | 18 ft | 2 kts | 86° |
| 2026-05-01 12:55 | 52.31594 | 4.77770 | 18 ft | 17 kts | 86° |
| 2026-05-01 12:56 | 52.31575 | 4.77945 | 22 ft | 14 kts | 142° |
| 2026-05-01 12:56 | 52.31533 | 4.77962 | 23 ft | 4 kts | 181° |
| 2026-05-01 12:56 | 52.31302 | 4.77941 | 18 ft | 70 kts | 184° |
| 2026-05-01 12:56 | 52.30599 | 4.77877 | 19 ft | 129 kts | 183° |
| 2026-05-01 12:57 | 52.29549 | 4.77786 | 96 ft | 168 kts | 181° |
| 2026-05-01 12:57 | 52.27043 | 4.77645 | 1194 ft | 197 kts | 168° |
| 2026-05-01 12:57 | 52.25876 | 4.78873 | 1845 ft | 212 kts | 123° |
| 2026-05-01 12:58 | 52.25422 | 4.81198 | 2802 ft | 220 kts | 100° |
| 2026-05-01 12:58 | 52.25320 | 4.83713 | 3702 ft | 225 kts | 95° |
| 2026-05-01 12:58 | 52.25314 | 4.86309 | 4435 ft | 237 kts | 94° |
| 2026-05-01 12:59 | 52.25294 | 4.92136 | 5650 ft | 268 kts | 95° |
| 2026-05-01 12:59 | 52.25253 | 4.95203 | 6534 ft | 272 kts | 96° |
| 2026-05-01 12:59 | 52.25118 | 5.01463 | 8262 ft | 280 kts | 97° |
| 2026-05-01 13:00 | 52.24940 | 5.07914 | 9962 ft | 289 kts | 96° |
| 2026-05-01 13:00 | 52.24845 | 5.11179 | 10604 ft | 300 kts | 96° |
| 2026-05-01 13:01 | 52.24616 | 5.18486 | 11249 ft | 340 kts | 96° |
| 2026-05-01 13:01 | 52.24494 | 5.22437 | 11956 ft | 346 kts | 96° |
| 2026-05-01 13:01 | 52.24223 | 5.30282 | 13495 ft | 351 kts | 97° |
| 2026-05-01 13:02 | 52.24030 | 5.34261 | 14246 ft | 353 kts | 98° |
| 2026-05-01 13:07 | 52.08301 | 6.20737 | 25307 ft | 413 kts | 99° |
| 2026-05-01 13:07 | 52.07820 | 6.25347 | 25710 ft | 414 kts | 100° |
| 2026-05-01 13:07 | 52.07332 | 6.29976 | 26083 ft | 417 kts | 100° |
| 2026-05-01 13:08 | 52.06846 | 6.34579 | 26411 ft | 420 kts | 100° |
| 2026-05-01 13:08 | 52.06348 | 6.39274 | 26785 ft | 423 kts | 99° |
| 2026-05-01 13:08 | 52.05847 | 6.43995 | 27155 ft | 425 kts | 99° |
| 2026-05-01 13:08 | 52.05342 | 6.48744 | 27480 ft | 428 kts | 99° |
| 2026-05-01 13:09 | 52.04833 | 6.53528 | 27847 ft | 430 kts | 99° |
| 2026-05-01 13:09 | 52.04321 | 6.58335 | 28206 ft | 433 kts | 99° |
| 2026-05-01 13:09 | 52.03804 | 6.63163 | 28523 ft | 436 kts | 99° |
| 2026-05-01 13:09 | 52.03278 | 6.68029 | 28877 ft | 438 kts | 99° |
| 2026-05-01 13:10 | 52.02746 | 6.72908 | 29198 ft | 440 kts | 99° |
| 2026-05-01 13:10 | 52.02190 | 6.77815 | 29494 ft | 443 kts | 101° |
| 2026-05-01 13:10 | 52.01525 | 6.82712 | 29805 ft | 445 kts | 102° |
| 2026-05-01 13:10 | 52.00765 | 6.87598 | 30128 ft | 448 kts | 103° |
| 2026-05-01 13:11 | 51.99948 | 6.92480 | 30448 ft | 449 kts | 103° |
| 2026-05-01 13:11 | 51.99114 | 6.97369 | 30723 ft | 450 kts | 103° |
| 2026-05-01 13:11 | 51.98287 | 7.02274 | 30968 ft | 452 kts | 103° |
| 2026-05-01 13:11 | 51.97472 | 7.07219 | 31210 ft | 454 kts | 103° |
| 2026-05-01 13:12 | 51.96665 | 7.12168 | 31534 ft | 454 kts | 103° |
| 2026-05-01 13:12 | 51.95818 | 7.17107 | 31848 ft | 455 kts | 105° |
| 2026-05-01 13:12 | 51.94924 | 7.22022 | 32147 ft | 455 kts | 106° |
| 2026-05-01 13:12 | 51.93999 | 7.26931 | 32453 ft | 456 kts | 106° |
| 2026-05-01 13:13 | 51.93070 | 7.31773 | 32742 ft | 456 kts | 106° |
| 2026-05-01 13:13 | 51.92126 | 7.36693 | 33065 ft | 457 kts | 106° |
| 2026-05-01 13:13 | 51.91192 | 7.41601 | 33399 ft | 456 kts | 106° |
| 2026-05-01 13:13 | 51.90266 | 7.46514 | 33724 ft | 456 kts | 106° |
| 2026-05-01 13:14 | 51.89343 | 7.51438 | 34045 ft | 456 kts | 106° |
| 2026-05-01 13:14 | 51.88426 | 7.56341 | 34387 ft | 456 kts | 106° |
| 2026-05-01 13:14 | 51.87502 | 7.61253 | 34655 ft | 456 kts | 106° |
| 2026-05-01 13:14 | 51.86573 | 7.66165 | 34926 ft | 456 kts | 106° |
| 2026-05-01 13:15 | 51.85647 | 7.71060 | 35225 ft | 455 kts | 106° |
| 2026-05-01 13:15 | 51.84813 | 7.76003 | 35492 ft | 455 kts | 103° |
| 2026-05-01 13:15 | 51.84108 | 7.80991 | 35738 ft | 455 kts | 101° |
| 2026-05-01 13:15 | 51.83488 | 7.85999 | 36039 ft | 454 kts | 100° |
| 2026-05-01 13:16 | 51.82896 | 7.91005 | 36299 ft | 453 kts | 100° |
| 2026-05-01 13:16 | 51.82292 | 7.96008 | 36525 ft | 453 kts | 101° |
| 2026-05-01 13:16 | 51.81658 | 8.00991 | 36802 ft | 452 kts | 101° |
| 2026-05-01 13:17 | 51.79619 | 8.15811 | 37314 ft | 452 kts | 102° |
| 2026-05-01 13:17 | 51.78920 | 8.20767 | 37326 ft | 452 kts | 102° |
| 2026-05-01 13:18 | 51.76847 | 8.35624 | 37322 ft | 452 kts | 102° |
| 2026-05-01 13:18 | 51.75469 | 8.45525 | 37346 ft | 452 kts | 102° |
| 2026-05-01 13:19 | 51.74084 | 8.55422 | 37350 ft | 452 kts | 102° |
| 2026-05-01 13:20 | 51.71975 | 8.70250 | 37351 ft | 452 kts | 102° |
| 2026-05-01 13:20 | 51.70559 | 8.80121 | 37360 ft | 452 kts | 102° |
| 2026-05-01 13:21 | 51.68665 | 8.93264 | 37364 ft | 452 kts | 102° |
| 2026-05-01 13:21 | 51.67229 | 9.03124 | 37361 ft | 452 kts | 102° |
| 2026-05-01 13:22 | 51.65791 | 9.12977 | 37355 ft | 452 kts | 102° |
| 2026-05-01 13:22 | 51.64347 | 9.22829 | 37362 ft | 452 kts | 102° |
| 2026-05-01 13:23 | 51.62893 | 9.32680 | 37366 ft | 452 kts | 103° |
| 2026-05-01 13:23 | 51.61430 | 9.42515 | 37378 ft | 452 kts | 103° |
| 2026-05-01 13:24 | 51.59958 | 9.52340 | 37380 ft | 452 kts | 103° |
| 2026-05-01 13:25 | 51.57725 | 9.67078 | 37383 ft | 452 kts | 103° |
| 2026-05-01 13:25 | 51.56238 | 9.76820 | 37379 ft | 451 kts | 103° |
| 2026-05-01 13:26 | 51.54739 | 9.86603 | 37381 ft | 451 kts | 103° |
| 2026-05-01 13:26 | 51.53237 | 9.96378 | 37374 ft | 450 kts | 103° |
| 2026-05-01 13:27 | 51.51719 | 10.06141 | 37376 ft | 450 kts | 103° |
| 2026-05-01 13:27 | 51.49436 | 10.20758 | 37378 ft | 450 kts | 103° |
| 2026-05-01 13:28 | 51.47147 | 10.35336 | 37383 ft | 449 kts | 103° |
| 2026-05-01 13:29 | 51.44057 | 10.54721 | 37383 ft | 448 kts | 103° |
| 2026-05-01 13:31 | 51.39476 | 10.83700 | 37399 ft | 448 kts | 103° |
| 2026-05-01 13:32 | 51.35578 | 11.07836 | 37409 ft | 448 kts | 103° |
| 2026-05-01 13:33 | 51.31637 | 11.31884 | 37407 ft | 446 kts | 103° |
| 2026-05-01 13:34 | 51.28459 | 11.51033 | 37405 ft | 446 kts | 103° |
| 2026-05-01 13:35 | 51.26037 | 11.65371 | 37411 ft | 446 kts | 103° |
| 2026-05-01 13:36 | 51.23632 | 11.79629 | 37407 ft | 445 kts | 103° |
| 2026-05-01 13:36 | 51.21182 | 11.93925 | 37403 ft | 445 kts | 103° |
| 2026-05-01 13:37 | 51.19550 | 12.03451 | 37419 ft | 445 kts | 103° |
| 2026-05-01 13:37 | 51.17915 | 12.12969 | 37411 ft | 445 kts | 103° |
| 2026-05-01 13:38 | 51.15449 | 12.27227 | 37404 ft | 445 kts | 103° |
| 2026-05-01 13:39 | 51.13779 | 12.36710 | 37391 ft | 445 kts | 104° |
| 2026-05-01 13:39 | 51.12096 | 12.46187 | 37401 ft | 445 kts | 103° |
| 2026-05-01 13:40 | 51.10413 | 12.55646 | 37392 ft | 444 kts | 103° |
| 2026-05-01 13:40 | 51.08720 | 12.65092 | 37389 ft | 444 kts | 103° |
| 2026-05-01 13:41 | 51.07023 | 12.74521 | 37393 ft | 444 kts | 103° |
| 2026-05-01 13:41 | 51.05316 | 12.83945 | 37397 ft | 444 kts | 104° |
| 2026-05-01 13:42 | 51.03600 | 12.93356 | 37411 ft | 443 kts | 103° |
| 2026-05-01 13:42 | 51.01880 | 13.02767 | 37410 ft | 443 kts | 103° |
| 2026-05-01 13:42 | 51.01017 | 13.07475 | 37245 ft | 444 kts | 103° |
| 2026-05-01 13:43 | 51.00155 | 13.12169 | 37007 ft | 443 kts | 104° |
| 2026-05-01 13:43 | 50.99289 | 13.16862 | 36740 ft | 443 kts | 104° |
| 2026-05-01 13:43 | 50.98424 | 13.21546 | 36487 ft | 443 kts | 104° |
| 2026-05-01 13:43 | 50.97552 | 13.26232 | 36227 ft | 443 kts | 104° |
| 2026-05-01 13:44 | 50.96677 | 13.30910 | 35973 ft | 443 kts | 104° |
| 2026-05-01 13:44 | 50.95809 | 13.35590 | 35736 ft | 442 kts | 103° |
| 2026-05-01 13:44 | 50.94966 | 13.40272 | 35486 ft | 441 kts | 103° |
| 2026-05-01 13:44 | 50.94137 | 13.44955 | 35240 ft | 441 kts | 103° |
| 2026-05-01 13:45 | 50.93313 | 13.49634 | 34987 ft | 441 kts | 103° |
| 2026-05-01 13:45 | 50.92472 | 13.54309 | 34747 ft | 441 kts | 103° |
| 2026-05-01 13:45 | 50.91608 | 13.58982 | 34043 ft | 444 kts | 103° |
| 2026-05-01 13:45 | 50.90725 | 13.63689 | 33045 ft | 448 kts | 104° |
| 2026-05-01 13:46 | 50.89680 | 13.68366 | 32026 ft | 454 kts | 111° |
| 2026-05-01 13:46 | 50.88168 | 13.72807 | 31021 ft | 462 kts | 120° |
| 2026-05-01 13:46 | 50.86220 | 13.76866 | 30341 ft | 462 kts | 127° |
| 2026-05-01 13:46 | 50.84172 | 13.80750 | 29627 ft | 457 kts | 126° |
| 2026-05-01 13:47 | 50.82165 | 13.84597 | 28965 ft | 451 kts | 126° |
| 2026-05-01 13:47 | 50.80289 | 13.88523 | 28322 ft | 441 kts | 119° |
| 2026-05-01 13:47 | 50.78811 | 13.92652 | 27677 ft | 434 kts | 115° |
| 2026-05-01 13:47 | 50.77374 | 13.96824 | 27036 ft | 430 kts | 115° |
| 2026-05-01 13:48 | 50.75928 | 14.00940 | 26392 ft | 426 kts | 116° |
| 2026-05-01 13:48 | 50.74480 | 14.05009 | 25757 ft | 423 kts | 116° |
| 2026-05-01 13:48 | 50.73044 | 14.09032 | 25140 ft | 419 kts | 116° |
| 2026-05-01 13:48 | 50.71622 | 14.13028 | 24535 ft | 415 kts | 116° |
| 2026-05-01 13:49 | 50.70218 | 14.16985 | 23939 ft | 412 kts | 115° |
| 2026-05-01 13:49 | 50.68827 | 14.20904 | 23313 ft | 407 kts | 115° |
| 2026-05-01 13:49 | 50.67450 | 14.24767 | 22777 ft | 401 kts | 115° |
| 2026-05-01 13:49 | 50.66094 | 14.28563 | 22276 ft | 394 kts | 115° |
| 2026-05-01 13:50 | 50.64757 | 14.32303 | 21778 ft | 389 kts | 115° |
| 2026-05-01 13:50 | 50.63440 | 14.35984 | 21307 ft | 383 kts | 115° |
| 2026-05-01 13:50 | 50.62004 | 14.39485 | 20833 ft | 382 kts | 127° |
| 2026-05-01 13:50 | 50.59987 | 14.42219 | 20344 ft | 387 kts | 145° |
| 2026-05-01 13:51 | 50.57483 | 14.43800 | 19841 ft | 393 kts | 164° |
| 2026-05-01 13:51 | 50.54741 | 14.44007 | 19271 ft | 400 kts | 185° |
| 2026-05-01 13:51 | 50.52067 | 14.42743 | 18680 ft | 406 kts | 205° |
| 2026-05-01 13:51 | 50.49655 | 14.40398 | 18018 ft | 408 kts | 211° |
| 2026-05-01 13:52 | 50.47284 | 14.37956 | 17396 ft | 407 kts | 210° |
| 2026-05-01 13:52 | 50.44777 | 14.35966 | 16783 ft | 403 kts | 198° |
| 2026-05-01 13:52 | 50.42091 | 14.34827 | 16175 ft | 398 kts | 185° |
| 2026-05-01 13:52 | 50.39361 | 14.34563 | 15658 ft | 390 kts | 174° |
| 2026-05-01 13:53 | 50.36687 | 14.35004 | 15136 ft | 385 kts | 168° |
| 2026-05-01 13:53 | 50.31400 | 14.36069 | 14070 ft | 381 kts | 168° |
| 2026-05-01 13:53 | 50.28781 | 14.36595 | 13506 ft | 378 kts | 169° |
| 2026-05-01 13:54 | 50.26183 | 14.37116 | 12978 ft | 374 kts | 169° |
| 2026-05-01 13:54 | 50.23612 | 14.37631 | 12431 ft | 371 kts | 169° |
| 2026-05-01 13:54 | 50.21063 | 14.38137 | 11897 ft | 368 kts | 169° |
| 2026-05-01 13:54 | 50.18535 | 14.38638 | 11346 ft | 364 kts | 169° |
| 2026-05-01 13:55 | 50.16093 | 14.39481 | 10895 ft | 354 kts | 156° |
| 2026-05-01 13:55 | 50.13954 | 14.41134 | 10758 ft | 334 kts | 143° |
| 2026-05-01 13:55 | 50.12228 | 14.43328 | 10642 ft | 316 kts | 130° |
| 2026-05-01 13:55 | 50.10872 | 14.45906 | 10521 ft | 301 kts | 123° |
| 2026-05-01 13:56 | 50.09632 | 14.48454 | 10392 ft | 290 kts | 123° |
| 2026-05-01 13:56 | 50.08423 | 14.50927 | 10090 ft | 286 kts | 123° |
| 2026-05-01 13:56 | 50.07210 | 14.53401 | 9653 ft | 287 kts | 126° |
| 2026-05-01 13:56 | 50.05639 | 14.55351 | 8992 ft | 294 kts | 156° |
| 2026-05-01 13:57 | 50.03673 | 14.55850 | 8489 ft | 291 kts | 182° |
| 2026-05-01 13:57 | 50.02328 | 14.55553 | 7769 ft | 299 kts | 187° |
| 2026-05-01 13:57 | 49.99535 | 14.55799 | 6170 ft | 308 kts | 158° |
| 2026-05-01 13:57 | 49.97719 | 14.57564 | 5067 ft | 310 kts | 132° |
| 2026-05-01 13:58 | 49.96352 | 14.60038 | 4611 ft | 293 kts | 134° |
| 2026-05-01 13:58 | 49.94700 | 14.61716 | 4260 ft | 278 kts | 159° |
| 2026-05-01 13:58 | 49.92890 | 14.62301 | 4112 ft | 257 kts | 178° |
| 2026-05-01 13:58 | 49.91189 | 14.62045 | 4010 ft | 236 kts | 195° |
| 2026-05-01 13:59 | 49.89718 | 14.61131 | 4012 ft | 224 kts | 212° |
| 2026-05-01 13:59 | 49.88499 | 14.59685 | 4012 ft | 218 kts | 230° |
| 2026-05-01 13:59 | 49.87864 | 14.57622 | 4016 ft | 212 kts | 265° |
| 2026-05-01 13:59 | 49.88119 | 14.55429 | 4015 ft | 209 kts | 301° |
| 2026-05-01 14:00 | 49.89012 | 14.53659 | 4022 ft | 209 kts | 319° |
| 2026-05-01 14:00 | 49.90235 | 14.52496 | 4023 ft | 207 kts | 345° |
| 2026-05-01 14:00 | 49.91636 | 14.52013 | 4025 ft | 206 kts | 349° |
| 2026-05-01 14:00 | 49.93039 | 14.51569 | 4016 ft | 206 kts | 349° |
| 2026-05-01 14:01 | 49.94441 | 14.51129 | 4019 ft | 205 kts | 349° |
| 2026-05-01 14:01 | 49.95844 | 14.50690 | 4014 ft | 206 kts | 349° |
| 2026-05-01 14:01 | 49.97228 | 14.50251 | 4011 ft | 206 kts | 346° |
| 2026-05-01 14:01 | 49.98534 | 14.49343 | 4013 ft | 207 kts | 325° |
| 2026-05-01 14:02 | 49.99537 | 14.47747 | 4014 ft | 208 kts | 308° |
| 2026-05-01 14:02 | 50.00411 | 14.45951 | 3983 ft | 208 kts | 309° |
| 2026-05-01 14:02 | 50.01286 | 14.44153 | 3781 ft | 209 kts | 309° |
| 2026-05-01 14:02 | 50.02167 | 14.42343 | 3515 ft | 211 kts | 308° |
| 2026-05-01 14:03 | 50.03049 | 14.40530 | 3238 ft | 207 kts | 308° |
| 2026-05-01 14:03 | 50.03896 | 14.38787 | 2982 ft | 195 kts | 308° |
| 2026-05-01 14:03 | 50.04682 | 14.37168 | 2719 ft | 179 kts | 308° |
| 2026-05-01 14:03 | 50.05408 | 14.35672 | 2487 ft | 169 kts | 309° |
| 2026-05-01 14:04 | 50.06085 | 14.34276 | 2280 ft | 153 kts | 308° |
| 2026-05-01 14:04 | 50.06701 | 14.33008 | 2070 ft | 141 kts | 308° |
| 2026-05-01 14:04 | 50.07279 | 14.31817 | 1819 ft | 136 kts | 309° |
| 2026-05-01 14:04 | 50.07647 | 14.31048 | 1691 ft | 132 kts | 309° |
| 2026-05-01 14:05 | 50.08382 | 14.29518 | 1449 ft | 131 kts | 309° |
| 2026-05-01 14:05 | 50.08935 | 14.28386 | 1314 ft | 132 kts | 309° |
| 2026-05-01 14:05 | 50.09477 | 14.27275 | 1221 ft | 120 kts | 307° |
| 2026-05-01 14:05 | 50.09884 | 14.26446 | 1200 ft | 72 kts | 304° |
| 2026-05-01 14:06 | 50.10126 | 14.25939 | 1187 ft | 50 kts | 307° |
| 2026-05-01 14:06 | 50.10269 | 14.25710 | 1185 ft | 19 kts | 324° |
| 2026-05-01 14:06 | 50.10387 | 14.25661 | 1184 ft | 13 kts | 355° |
| 2026-05-01 14:06 | 50.10466 | 14.25670 | 1184 ft | 10 kts | 15° |
| 2026-05-01 14:07 | 50.10491 | 14.25759 | 1184 ft | 9 kts | 83° |
| 2026-05-01 14:07 | 50.10497 | 14.25814 | 1185 ft | 7 kts | 79° |
| 2026-05-01 14:07 | 50.10510 | 14.25918 | 1187 ft | 15 kts | 78° |
| 2026-05-01 14:08 | 50.10502 | 14.26324 | 1188 ft | 18 kts | 123° |
| 2026-05-01 14:08 | 50.10443 | 14.26456 | 1191 ft | 13 kts | 127° |
| 2026-05-01 14:08 | 50.10409 | 14.26543 | 1192 ft | 1 kts | 69° |
| 2026-05-01 14:08 | 50.10427 | 14.26569 | 1191 ft | 1 kts | 35° |
| 2026-05-01 14:09 | 50.10435 | 14.26577 | 1191 ft | 1 kts | 33° |
| 2026-05-01 14:09 | 50.10436 | 14.26578 | 1191 ft | 0 kts | 33° |